Warning: Javascript must be enabled to use all the features on this page!


Page Loading - Please Wait...

Click to hideNews Bulletins

Peak Streamflow for the Nation

USGS 13334300 SNAKE RIVER NEAR ANATONE, WA

Asotin County, Washington
Hydrologic Unit Code 17060103
Latitude  46°05'50", Longitude 116°58'36" NAD27
Drainage area 92,960  square miles
Gage datum 807 feet above NGVD29
Output formats
Table
Graph
Tab-separated file
peakfq (watstore) format
Reselect output format
Water
Year
Date Gage
Height
(feet)
Stream-
flow
(cfs)
1959 1959-06-07 14.21 91,3006
1960 1960-06-05 14.11 89,3006
1961 1961-06-03 13.57 84,9006
1962 1962-05-29 12.52 75,2006
1963 1963-06-17 15.55 102,0006
1964 1964-06-17 17.27 119,0006
1965 1965-05-01 18.09 128,0006
1966 1966-04-05 10.67 59,2006
1967 1967-06-22 16.90 115,0006
1968 1968-06-07 13.08 81,0006
1969 1969-05-20 16.32 110,0006
1970 1970-06-07 18.57 131,0006
1971 1971-05-29 19.98 151,0006
1972 1972-06-03 19.24 138,0006
1973 1973-05-18 10.84 63,7006
1974 1974-06-18 24.45 195,0006
1975 1975-06-08 17.19 119,0006
1976 1976-05-15 17.68 124,0006
1977 1977-06-07 9.93 38,0006
1978 1978-06-09 15.14 99,3006
1979 1979-05-25 13.22 82,0006
1980 1980-06-12   92,4001,6
1981 1981-06-10 17.51 122,0006
1982 1982-06-18 20.07 148,0006
1983 1983-05-31 20.25 150,0006
1984 1984-05-31 23.39 183,0006
1985 1985-04-11 13.31 82,7006
1986 1986-06-01 21.20 159,0006
1987 1987-05-13 10.49 57,9006
1988 1988-05-26 10.41 58,4006
1989 1989-04-22 12.61 77,6006
1990 1990-05-31 11.72 68,8006
1991 1991-05-19 12.71 78,5006
1992 1992-05-01 9.17 48,4006
1993 1993-05-21 17.01 119,0006
1994 1994-05-10 11.51 68,1006
1995 1995-06-05 17.30 122,0006
1996 1996-06-10 20.10 151,0006
1997 1997-01-02 22.76 179,0006
1998 1998-05-27 21.82 169,0006
1999 1999-05-27 20.19 152,0006
2000 2000-04-23 11.63 68,9006
2001 2001-05-17 11.23 65,5006
2002 2002-05-31 13.55 86,2006
2003 2003-05-31 20.53 156,0006
2004 2004-05-31 12.62 77,7006
2005 2005-05-20 15.72 107,0006
2006 2006-05-21 19.67 147,0006
2007 2007-05-15 10.91 62,7006
2008 2008-05-21 19.30 143,0006
2009 2009-06-07 17.66 126,0006
2010 2010-06-05 22.18 173,0006
2011 2011-06-08 19.76 147,0006
2012 2012-04-27 17.29 122,0006
2013 2013-05-14 13.02 81,3006
2014 2014-05-26 14.16 91,9006
2015 2015-02-11 9.63 51,9006
2016 2016-05-10 13.44 85,1006
2017 2017-05-13 19.34 143,0006
2018 2018-05-26 17.16 121,0006
2019 2019-04-10 16.88 118,0006
2020 2020-05-31 16.10 110,0006
2021 2021-06-05 9.92 53,9006
?
  Peak Streamflow Qualification Codes.